sensor_id;sensor_type;location;lat;lon;timestamp;P1;durP1;ratioP1;P2;durP2;ratioP2
19776;SDS011;10047;42.490;26.012;2024-01-07T11:12:55;27.10;;;4.18;;
19776;SDS011;10047;42.490;26.012;2024-01-07T11:18:19;20.48;;;5.32;;
19776;SDS011;10047;42.490;26.012;2024-01-07T11:20:45;21.02;;;4.78;;
19776;SDS011;10047;42.490;26.012;2024-01-07T11:23:30;26.20;;;5.45;;
19776;SDS011;10047;42.490;26.012;2024-01-07T11:25:58;29.85;;;6.18;;
19776;SDS011;10047;42.490;26.012;2024-01-07T11:31:10;25.83;;;4.72;;
19776;SDS011;10047;42.490;26.012;2024-01-07T11:33:48;20.23;;;5.20;;
19776;SDS011;10047;42.490;26.012;2024-01-07T11:36:18;27.58;;;6.22;;
19776;SDS011;10047;42.490;26.012;2024-01-07T11:38:44;29.50;;;7.03;;
19776;SDS011;10047;42.490;26.012;2024-01-07T11:41:12;25.33;;;6.93;;
19776;SDS011;10047;42.490;26.012;2024-01-07T11:43:51;27.13;;;7.15;;
19776;SDS011;10047;42.490;26.012;2024-01-07T11:46:25;27.45;;;6.93;;
19776;SDS011;10047;42.490;26.012;2024-01-07T11:48:55;24.42;;;6.00;;
19776;SDS011;10047;42.490;26.012;2024-01-07T11:51:28;31.00;;;7.63;;
19776;SDS011;10047;42.490;26.012;2024-01-07T11:54:00;31.42;;;8.77;;
19776;SDS011;10047;42.490;26.012;2024-01-07T11:56:26;38.53;;;11.65;;
19776;SDS011;10047;42.490;26.012;2024-01-07T11:58:52;38.80;;;10.27;;
19776;SDS011;10047;42.490;26.012;2024-01-07T12:01:18;32.20;;;9.20;;
19776;SDS011;10047;42.490;26.012;2024-01-07T12:03:44;35.53;;;8.40;;
19776;SDS011;10047;42.490;26.012;2024-01-07T12:06:10;36.55;;;6.63;;
19776;SDS011;10047;42.490;26.012;2024-01-07T12:08:42;34.58;;;6.78;;
19776;SDS011;10047;42.490;26.012;2024-01-07T12:11:08;42.92;;;13.40;;
19776;SDS011;10047;42.490;26.012;2024-01-07T12:13:36;40.00;;;11.75;;
19776;SDS011;10047;42.490;26.012;2024-01-07T12:16:02;41.33;;;14.73;;
19776;SDS011;10047;42.490;26.012;2024-01-07T12:18:29;49.50;;;19.58;;
19776;SDS011;10047;42.490;26.012;2024-01-07T12:20:57;47.65;;;17.05;;
19776;SDS011;10047;42.490;26.012;2024-01-07T12:23:24;38.33;;;10.90;;
19776;SDS011;10047;42.490;26.012;2024-01-07T12:25:51;40.92;;;9.77;;
19776;SDS011;10047;42.490;26.012;2024-01-07T12:28:23;38.88;;;9.82;;
19776;SDS011;10047;42.490;26.012;2024-01-07T12:30:49;38.38;;;9.40;;
19776;SDS011;10047;42.490;26.012;2024-01-07T12:33:15;35.23;;;7.60;;
19776;SDS011;10047;42.490;26.012;2024-01-07T12:35:44;41.22;;;7.60;;
19776;SDS011;10047;42.490;26.012;2024-01-07T12:38:10;38.67;;;7.90;;
19776;SDS011;10047;42.490;26.012;2024-01-07T12:40:35;39.22;;;7.68;;
19776;SDS011;10047;42.490;26.012;2024-01-07T12:43:01;35.03;;;8.13;;
19776;SDS011;10047;42.490;26.012;2024-01-07T12:45:27;34.33;;;7.80;;
19776;SDS011;10047;42.490;26.012;2024-01-07T12:47:53;37.83;;;7.38;;
19776;SDS011;10047;42.490;26.012;2024-01-07T12:50:20;37.67;;;6.95;;
19776;SDS011;10047;42.490;26.012;2024-01-07T12:52:48;44.30;;;8.63;;
19776;SDS011;10047;42.490;26.012;2024-01-07T12:55:13;45.63;;;9.57;;
19776;SDS011;10047;42.490;26.012;2024-01-07T12:57:39;40.83;;;8.48;;
19776;SDS011;10047;42.490;26.012;2024-01-07T13:00:04;36.13;;;8.27;;
19776;SDS011;10047;42.490;26.012;2024-01-07T13:02:31;39.33;;;9.65;;
19776;SDS011;10047;42.490;26.012;2024-01-07T13:04:58;39.95;;;8.45;;
19776;SDS011;10047;42.490;26.012;2024-01-07T13:07:23;42.80;;;9.45;;
19776;SDS011;10047;42.490;26.012;2024-01-07T13:09:49;43.65;;;9.48;;
19776;SDS011;10047;42.490;26.012;2024-01-07T13:12:14;51.90;;;12.43;;
19776;SDS011;10047;42.490;26.012;2024-01-07T13:14:40;50.63;;;9.98;;
19776;SDS011;10047;42.490;26.012;2024-01-07T13:17:07;33.58;;;6.20;;
19776;SDS011;10047;42.490;26.012;2024-01-07T13:19:33;35.28;;;6.97;;
19776;SDS011;10047;42.490;26.012;2024-01-07T13:21:58;44.28;;;7.95;;
19776;SDS011;10047;42.490;26.012;2024-01-07T13:24:24;45.70;;;10.65;;
19776;SDS011;10047;42.490;26.012;2024-01-07T13:26:50;44.00;;;10.68;;
19776;SDS011;10047;42.490;26.012;2024-01-07T13:29:15;46.10;;;11.65;;
19776;SDS011;10047;42.490;26.012;2024-01-07T13:31:40;38.70;;;7.88;;
19776;SDS011;10047;42.490;26.012;2024-01-07T13:34:06;42.72;;;8.65;;
19776;SDS011;10047;42.490;26.012;2024-01-07T13:36:31;40.17;;;8.32;;
19776;SDS011;10047;42.490;26.012;2024-01-07T13:38:57;46.35;;;7.22;;
19776;SDS011;10047;42.490;26.012;2024-01-07T13:41:22;45.13;;;9.02;;
19776;SDS011;10047;42.490;26.012;2024-01-07T13:43:48;42.13;;;8.68;;
19776;SDS011;10047;42.490;26.012;2024-01-07T13:46:15;39.67;;;8.95;;
19776;SDS011;10047;42.490;26.012;2024-01-07T13:48:41;45.10;;;10.25;;
19776;SDS011;10047;42.490;26.012;2024-01-07T13:51:08;40.53;;;9.05;;
19776;SDS011;10047;42.490;26.012;2024-01-07T13:53:43;43.55;;;8.75;;
19776;SDS011;10047;42.490;26.012;2024-01-07T13:56:10;26.95;;;6.32;;
19776;SDS011;10047;42.490;26.012;2024-01-07T13:58:36;33.63;;;6.90;;
19776;SDS011;10047;42.490;26.012;2024-01-07T14:01:02;45.25;;;8.02;;
19776;SDS011;10047;42.490;26.012;2024-01-07T14:03:28;32.70;;;7.40;;
19776;SDS011;10047;42.490;26.012;2024-01-07T14:06:03;42.40;;;8.25;;
19776;SDS011;10047;42.490;26.012;2024-01-07T14:08:28;34.97;;;9.73;;
19776;SDS011;10047;42.490;26.012;2024-01-07T14:10:54;40.15;;;10.13;;
19776;SDS011;10047;42.490;26.012;2024-01-07T14:13:21;41.38;;;9.57;;
19776;SDS011;10047;42.490;26.012;2024-01-07T14:15:47;36.92;;;9.18;;
19776;SDS011;10047;42.490;26.012;2024-01-07T14:18:13;41.15;;;10.95;;
19776;SDS011;10047;42.490;26.012;2024-01-07T14:20:41;43.50;;;11.95;;
19776;SDS011;10047;42.490;26.012;2024-01-07T14:23:07;34.35;;;9.80;;
19776;SDS011;10047;42.490;26.012;2024-01-07T14:25:32;41.88;;;10.65;;
19776;SDS011;10047;42.490;26.012;2024-01-07T14:27:57;41.08;;;10.68;;
19776;SDS011;10047;42.490;26.012;2024-01-07T14:30:23;40.05;;;10.60;;
19776;SDS011;10047;42.490;26.012;2024-01-07T14:32:48;45.70;;;10.25;;
19776;SDS011;10047;42.490;26.012;2024-01-07T14:35:15;41.53;;;11.15;;
19776;SDS011;10047;42.490;26.012;2024-01-07T14:37:41;46.83;;;11.68;;
19776;SDS011;10047;42.490;26.012;2024-01-07T14:40:07;41.33;;;11.48;;
19776;SDS011;10047;42.490;26.012;2024-01-07T14:42:32;38.70;;;9.85;;
19776;SDS011;10047;42.490;26.012;2024-01-07T14:44:58;35.05;;;10.00;;
19776;SDS011;10047;42.490;26.012;2024-01-07T14:47:23;41.13;;;9.77;;
19776;SDS011;10047;42.490;26.012;2024-01-07T14:49:49;38.63;;;13.35;;
19776;SDS011;10047;42.490;26.012;2024-01-07T14:52:14;45.97;;;13.68;;
19776;SDS011;10047;42.490;26.012;2024-01-07T14:54:40;48.05;;;14.60;;
19776;SDS011;10047;42.490;26.012;2024-01-07T14:57:05;45.13;;;17.73;;
19776;SDS011;10047;42.490;26.012;2024-01-07T14:59:33;53.97;;;22.77;;
19776;SDS011;10047;42.490;26.012;2024-01-07T15:02:01;47.53;;;18.52;;
19776;SDS011;10047;42.490;26.012;2024-01-07T15:04:26;45.15;;;16.00;;
19776;SDS011;10047;42.490;26.012;2024-01-07T15:06:52;47.25;;;16.25;;
19776;SDS011;10047;42.490;26.012;2024-01-07T15:09:17;49.38;;;14.63;;
19776;SDS011;10047;42.490;26.012;2024-01-07T15:11:43;38.92;;;12.43;;
19776;SDS011;10047;42.490;26.012;2024-01-07T15:14:11;45.75;;;12.90;;
19776;SDS011;10047;42.490;26.012;2024-01-07T15:16:37;42.90;;;15.32;;
19776;SDS011;10047;42.490;26.012;2024-01-07T15:19:02;49.92;;;18.92;;
19776;SDS011;10047;42.490;26.012;2024-01-07T15:21:28;46.58;;;19.60;;
19776;SDS011;10047;42.490;26.012;2024-01-07T15:23:54;50.92;;;19.17;;
19776;SDS011;10047;42.490;26.012;2024-01-07T15:26:19;49.10;;;18.52;;
19776;SDS011;10047;42.490;26.012;2024-01-07T15:28:45;49.97;;;18.33;;
19776;SDS011;10047;42.490;26.012;2024-01-07T15:31:10;43.80;;;17.42;;
19776;SDS011;10047;42.490;26.012;2024-01-07T15:33:35;41.22;;;17.10;;
19776;SDS011;10047;42.490;26.012;2024-01-07T15:36:04;56.08;;;27.35;;
19776;SDS011;10047;42.490;26.012;2024-01-07T15:38:31;60.58;;;28.98;;
19776;SDS011;10047;42.490;26.012;2024-01-07T15:40:56;51.53;;;23.35;;
19776;SDS011;10047;42.490;26.012;2024-01-07T15:43:21;56.53;;;29.52;;
19776;SDS011;10047;42.490;26.012;2024-01-07T15:45:47;59.55;;;31.98;;
19776;SDS011;10047;42.490;26.012;2024-01-07T15:48:12;62.20;;;25.85;;
19776;SDS011;10047;42.490;26.012;2024-01-07T15:50:39;49.60;;;19.85;;
19776;SDS011;10047;42.490;26.012;2024-01-07T15:53:05;54.10;;;20.60;;
19776;SDS011;10047;42.490;26.012;2024-01-07T15:55:30;50.63;;;20.38;;
19776;SDS011;10047;42.490;26.012;2024-01-07T15:57:56;46.80;;;20.30;;
19776;SDS011;10047;42.490;26.012;2024-01-07T16:00:21;42.17;;;20.27;;
19776;SDS011;10047;42.490;26.012;2024-01-07T16:02:46;46.28;;;20.65;;
19776;SDS011;10047;42.490;26.012;2024-01-07T16:05:12;38.83;;;15.50;;
19776;SDS011;10047;42.490;26.012;2024-01-07T16:07:38;38.53;;;12.35;;
19776;SDS011;10047;42.490;26.012;2024-01-07T16:10:03;39.25;;;11.30;;
19776;SDS011;10047;42.490;26.012;2024-01-07T16:12:29;44.42;;;11.65;;
19776;SDS011;10047;42.490;26.012;2024-01-07T16:14:56;37.35;;;10.88;;
19776;SDS011;10047;42.490;26.012;2024-01-07T16:17:22;42.45;;;13.57;;
19776;SDS011;10047;42.490;26.012;2024-01-07T16:19:48;45.50;;;13.65;;
19776;SDS011;10047;42.490;26.012;2024-01-07T16:22:13;47.30;;;14.40;;
19776;SDS011;10047;42.490;26.012;2024-01-07T16:24:39;33.67;;;12.68;;
19776;SDS011;10047;42.490;26.012;2024-01-07T16:27:08;38.50;;;11.93;;
19776;SDS011;10047;42.490;26.012;2024-01-07T16:29:34;41.40;;;14.52;;
19776;SDS011;10047;42.490;26.012;2024-01-07T16:32:00;46.55;;;19.38;;
19776;SDS011;10047;42.490;26.012;2024-01-07T16:34:26;54.45;;;24.13;;
19776;SDS011;10047;42.490;26.012;2024-01-07T16:36:52;43.25;;;17.85;;
19776;SDS011;10047;42.490;26.012;2024-01-07T16:39:18;50.28;;;16.15;;
19776;SDS011;10047;42.490;26.012;2024-01-07T16:41:43;42.33;;;14.60;;
19776;SDS011;10047;42.490;26.012;2024-01-07T16:44:09;38.80;;;14.55;;
19776;SDS011;10047;42.490;26.012;2024-01-07T16:46:35;50.00;;;16.23;;
19776;SDS011;10047;42.490;26.012;2024-01-07T16:49:04;46.97;;;17.95;;
19776;SDS011;10047;42.490;26.012;2024-01-07T16:51:32;64.95;;;30.17;;
19776;SDS011;10047;42.490;26.012;2024-01-07T16:53:57;62.00;;;26.70;;
19776;SDS011;10047;42.490;26.012;2024-01-07T16:56:23;56.25;;;22.65;;
19776;SDS011;10047;42.490;26.012;2024-01-07T16:58:49;42.35;;;13.85;;
19776;SDS011;10047;42.490;26.012;2024-01-07T17:01:15;54.58;;;26.52;;
19776;SDS011;10047;42.490;26.012;2024-01-07T17:03:41;39.55;;;16.60;;
19776;SDS011;10047;42.490;26.012;2024-01-07T17:06:07;42.20;;;16.98;;
19776;SDS011;10047;42.490;26.012;2024-01-07T17:08:34;38.78;;;14.32;;
19776;SDS011;10047;42.490;26.012;2024-01-07T17:11:00;39.55;;;11.98;;
19776;SDS011;10047;42.490;26.012;2024-01-07T17:13:25;39.40;;;12.25;;
19776;SDS011;10047;42.490;26.012;2024-01-07T17:15:51;38.63;;;11.43;;
19776;SDS011;10047;42.490;26.012;2024-01-07T17:18:16;39.15;;;12.00;;
19776;SDS011;10047;42.490;26.012;2024-01-07T17:20:42;41.75;;;11.32;;
19776;SDS011;10047;42.490;26.012;2024-01-07T17:23:07;40.50;;;12.23;;
19776;SDS011;10047;42.490;26.012;2024-01-07T17:25:33;55.80;;;19.30;;
19776;SDS011;10047;42.490;26.012;2024-01-07T17:27:58;54.60;;;22.45;;
19776;SDS011;10047;42.490;26.012;2024-01-07T17:30:24;54.58;;;21.40;;
19776;SDS011;10047;42.490;26.012;2024-01-07T17:32:58;60.67;;;20.75;;
19776;SDS011;10047;42.490;26.012;2024-01-07T17:35:25;52.75;;;21.98;;
19776;SDS011;10047;42.490;26.012;2024-01-07T17:37:51;52.15;;;20.27;;
19776;SDS011;10047;42.490;26.012;2024-01-07T17:40:16;46.75;;;16.45;;
19776;SDS011;10047;42.490;26.012;2024-01-07T17:42:42;43.47;;;17.75;;
19776;SDS011;10047;42.490;26.012;2024-01-07T17:45:07;65.13;;;35.08;;
19776;SDS011;10047;42.490;26.012;2024-01-07T17:47:34;79.65;;;37.35;;
19776;SDS011;10047;42.490;26.012;2024-01-07T17:50:00;72.38;;;32.08;;
19776;SDS011;10047;42.490;26.012;2024-01-07T17:52:26;53.00;;;26.23;;
19776;SDS011;10047;42.490;26.012;2024-01-07T17:54:55;78.22;;;42.90;;
19776;SDS011;10047;42.490;26.012;2024-01-07T17:57:21;132.38;;;77.88;;
19776;SDS011;10047;42.490;26.012;2024-01-07T17:59:51;124.93;;;78.28;;
19776;SDS011;10047;42.490;26.012;2024-01-07T18:02:17;105.35;;;64.88;;
19776;SDS011;10047;42.490;26.012;2024-01-07T18:04:42;99.85;;;57.03;;
19776;SDS011;10047;42.490;26.012;2024-01-07T18:07:08;104.25;;;51.47;;
19776;SDS011;10047;42.490;26.012;2024-01-07T18:09:35;97.60;;;47.53;;
19776;SDS011;10047;42.490;26.012;2024-01-07T18:12:00;96.68;;;43.22;;
19776;SDS011;10047;42.490;26.012;2024-01-07T18:14:28;82.15;;;36.40;;
19776;SDS011;10047;42.490;26.012;2024-01-07T18:16:54;80.68;;;35.95;;
19776;SDS011;10047;42.490;26.012;2024-01-07T18:19:19;51.75;;;26.45;;
19776;SDS011;10047;42.490;26.012;2024-01-07T18:21:45;46.58;;;22.25;;
19776;SDS011;10047;42.490;26.012;2024-01-07T18:24:10;41.13;;;16.63;;
19776;SDS011;10047;42.490;26.012;2024-01-07T18:26:36;38.20;;;15.05;;
19776;SDS011;10047;42.490;26.012;2024-01-07T18:29:01;42.08;;;14.68;;
19776;SDS011;10047;42.490;26.012;2024-01-07T18:31:27;35.80;;;13.27;;
19776;SDS011;10047;42.490;26.012;2024-01-07T18:33:52;29.02;;;10.15;;
19776;SDS011;10047;42.490;26.012;2024-01-07T18:36:18;37.42;;;10.73;;
19776;SDS011;10047;42.490;26.012;2024-01-07T18:38:43;35.42;;;13.00;;
19776;SDS011;10047;42.490;26.012;2024-01-07T18:41:09;34.20;;;14.80;;
19776;SDS011;10047;42.490;26.012;2024-01-07T18:43:35;34.78;;;12.70;;
19776;SDS011;10047;42.490;26.012;2024-01-07T18:46:00;30.63;;;11.27;;
19776;SDS011;10047;42.490;26.012;2024-01-07T18:48:26;35.60;;;12.38;;
19776;SDS011;10047;42.490;26.012;2024-01-07T18:50:51;31.33;;;13.90;;
19776;SDS011;10047;42.490;26.012;2024-01-07T18:53:18;75.07;;;32.08;;
19776;SDS011;10047;42.490;26.012;2024-01-07T18:55:44;59.65;;;28.80;;
19776;SDS011;10047;42.490;26.012;2024-01-07T18:58:12;58.92;;;26.35;;
19776;SDS011;10047;42.490;26.012;2024-01-07T19:00:38;54.58;;;23.17;;
19776;SDS011;10047;42.490;26.012;2024-01-07T19:03:03;57.33;;;27.70;;
19776;SDS011;10047;42.490;26.012;2024-01-07T19:05:32;63.80;;;27.40;;
19776;SDS011;10047;42.490;26.012;2024-01-07T19:07:57;53.38;;;25.27;;
19776;SDS011;10047;42.490;26.012;2024-01-07T19:10:23;45.38;;;20.10;;
19776;SDS011;10047;42.490;26.012;2024-01-07T19:12:49;39.58;;;17.15;;
19776;SDS011;10047;42.490;26.012;2024-01-07T19:15:14;31.65;;;15.57;;
19776;SDS011;10047;42.490;26.012;2024-01-07T19:17:43;35.03;;;14.75;;
19776;SDS011;10047;42.490;26.012;2024-01-07T19:20:13;30.35;;;13.85;;
19776;SDS011;10047;42.490;26.012;2024-01-07T19:22:41;35.10;;;13.35;;
19776;SDS011;10047;42.490;26.012;2024-01-07T19:25:07;27.70;;;12.82;;
19776;SDS011;10047;42.490;26.012;2024-01-07T19:27:33;29.73;;;12.23;;
19776;SDS011;10047;42.490;26.012;2024-01-07T19:30:00;29.85;;;12.05;;
19776;SDS011;10047;42.490;26.012;2024-01-07T19:32:26;34.90;;;13.13;;
19776;SDS011;10047;42.490;26.012;2024-01-07T19:34:51;30.63;;;13.02;;
19776;SDS011;10047;42.490;26.012;2024-01-07T19:37:18;26.88;;;12.20;;
19776;SDS011;10047;42.490;26.012;2024-01-07T19:39:44;31.70;;;13.68;;
19776;SDS011;10047;42.490;26.012;2024-01-07T19:42:11;26.13;;;12.93;;
19776;SDS011;10047;42.490;26.012;2024-01-07T19:44:39;27.92;;;12.45;;
19776;SDS011;10047;42.490;26.012;2024-01-07T19:47:05;28.27;;;12.88;;
19776;SDS011;10047;42.490;26.012;2024-01-07T19:49:31;29.02;;;13.05;;
19776;SDS011;10047;42.490;26.012;2024-01-07T19:51:56;36.10;;;15.75;;
19776;SDS011;10047;42.490;26.012;2024-01-07T19:54:22;30.50;;;14.93;;
19776;SDS011;10047;42.490;26.012;2024-01-07T19:56:49;33.03;;;15.80;;
19776;SDS011;10047;42.490;26.012;2024-01-07T19:59:15;32.63;;;15.82;;
19776;SDS011;10047;42.490;26.012;2024-01-07T20:01:44;30.55;;;15.40;;
19776;SDS011;10047;42.490;26.012;2024-01-07T20:04:10;33.28;;;15.73;;
19776;SDS011;10047;42.490;26.012;2024-01-07T20:06:39;30.63;;;14.93;;
19776;SDS011;10047;42.490;26.012;2024-01-07T20:09:05;29.13;;;14.60;;
19776;SDS011;10047;42.490;26.012;2024-01-07T20:11:32;34.85;;;15.07;;
19776;SDS011;10047;42.490;26.012;2024-01-07T20:13:58;36.38;;;20.88;;
19776;SDS011;10047;42.490;26.012;2024-01-07T20:16:23;37.78;;;21.55;;
19776;SDS011;10047;42.490;26.012;2024-01-07T20:18:49;46.13;;;23.02;;
19776;SDS011;10047;42.490;26.012;2024-01-07T20:23:50;44.88;;;22.48;;
19776;SDS011;10047;42.490;26.012;2024-01-07T20:26:26;48.10;;;22.77;;
19776;SDS011;10047;42.490;26.012;2024-01-07T20:31:21;50.35;;;22.75;;
19776;SDS011;10047;42.490;26.012;2024-01-07T20:33:47;39.92;;;21.30;;
19776;SDS011;10047;42.490;26.012;2024-01-07T20:36:13;39.33;;;18.23;;
19776;SDS011;10047;42.490;26.012;2024-01-07T20:38:41;35.53;;;17.50;;
19776;SDS011;10047;42.490;26.012;2024-01-07T20:41:08;35.17;;;18.00;;
19776;SDS011;10047;42.490;26.012;2024-01-07T20:43:34;35.88;;;20.15;;
19776;SDS011;10047;42.490;26.012;2024-01-07T20:46:00;37.20;;;18.10;;
19776;SDS011;10047;42.490;26.012;2024-01-07T20:48:25;39.17;;;16.98;;
19776;SDS011;10047;42.490;26.012;2024-01-07T20:50:52;31.25;;;17.05;;
19776;SDS011;10047;42.490;26.012;2024-01-07T20:53:18;31.92;;;17.05;;
19776;SDS011;10047;42.490;26.012;2024-01-07T20:55:45;30.85;;;16.45;;
19776;SDS011;10047;42.490;26.012;2024-01-07T20:58:11;32.88;;;17.02;;
19776;SDS011;10047;42.490;26.012;2024-01-07T21:00:45;37.38;;;18.83;;
19776;SDS011;10047;42.490;26.012;2024-01-07T21:03:12;41.05;;;20.25;;
19776;SDS011;10047;42.490;26.012;2024-01-07T21:05:38;40.13;;;19.10;;
19776;SDS011;10047;42.490;26.012;2024-01-07T21:08:03;33.75;;;17.73;;
19776;SDS011;10047;42.490;26.012;2024-01-07T21:10:29;33.20;;;17.00;;
19776;SDS011;10047;42.490;26.012;2024-01-07T21:12:54;29.02;;;15.65;;
19776;SDS011;10047;42.490;26.012;2024-01-07T21:15:20;31.75;;;17.35;;
19776;SDS011;10047;42.490;26.012;2024-01-07T21:17:45;31.65;;;17.02;;
19776;SDS011;10047;42.490;26.012;2024-01-07T21:20:11;37.05;;;18.17;;
19776;SDS011;10047;42.490;26.012;2024-01-07T21:22:36;46.10;;;16.75;;
19776;SDS011;10047;42.490;26.012;2024-01-07T21:25:03;37.35;;;18.00;;
19776;SDS011;10047;42.490;26.012;2024-01-07T21:27:30;37.40;;;17.27;;
19776;SDS011;10047;42.490;26.012;2024-01-07T21:29:57;34.85;;;17.75;;
19776;SDS011;10047;42.490;26.012;2024-01-07T21:32:23;35.20;;;16.38;;
19776;SDS011;10047;42.490;26.012;2024-01-07T21:34:51;33.50;;;16.15;;
19776;SDS011;10047;42.490;26.012;2024-01-07T21:37:16;33.88;;;15.73;;
19776;SDS011;10047;42.490;26.012;2024-01-07T21:39:42;32.13;;;14.13;;
19776;SDS011;10047;42.490;26.012;2024-01-07T21:42:07;24.77;;;13.07;;
19776;SDS011;10047;42.490;26.012;2024-01-07T21:44:33;34.50;;;16.67;;
19776;SDS011;10047;42.490;26.012;2024-01-07T21:46:59;52.83;;;29.55;;
19776;SDS011;10047;42.490;26.012;2024-01-07T21:49:26;53.63;;;28.92;;
19776;SDS011;10047;42.490;26.012;2024-01-07T21:51:51;50.72;;;28.70;;
19776;SDS011;10047;42.490;26.012;2024-01-07T21:54:16;46.03;;;27.15;;
19776;SDS011;10047;42.490;26.012;2024-01-07T21:56:42;50.00;;;27.13;;
19776;SDS011;10047;42.490;26.012;2024-01-07T21:59:07;37.40;;;20.42;;
19776;SDS011;10047;42.490;26.012;2024-01-07T22:01:33;46.80;;;24.42;;
19776;SDS011;10047;42.490;26.012;2024-01-07T22:03:58;39.25;;;22.77;;
19776;SDS011;10047;42.490;26.012;2024-01-07T22:06:24;40.45;;;23.80;;
19776;SDS011;10047;42.490;26.012;2024-01-07T22:08:49;39.92;;;23.60;;
19776;SDS011;10047;42.490;26.012;2024-01-07T22:11:15;47.83;;;23.20;;
19776;SDS011;10047;42.490;26.012;2024-01-07T22:13:41;40.78;;;18.48;;
19776;SDS011;10047;42.490;26.012;2024-01-07T22:16:10;32.38;;;17.50;;
19776;SDS011;10047;42.490;26.012;2024-01-07T22:18:37;39.10;;;18.90;;
19776;SDS011;10047;42.490;26.012;2024-01-07T22:21:03;47.17;;;25.52;;
19776;SDS011;10047;42.490;26.012;2024-01-07T22:23:28;45.25;;;21.85;;
19776;SDS011;10047;42.490;26.012;2024-01-07T22:25:54;46.08;;;21.45;;
19776;SDS011;10047;42.490;26.012;2024-01-07T22:28:19;45.08;;;22.92;;
19776;SDS011;10047;42.490;26.012;2024-01-07T22:30:45;41.05;;;20.10;;
19776;SDS011;10047;42.490;26.012;2024-01-07T22:33:10;42.13;;;21.77;;
19776;SDS011;10047;42.490;26.012;2024-01-07T22:35:36;43.33;;;20.48;;
19776;SDS011;10047;42.490;26.012;2024-01-07T22:38:02;46.47;;;17.05;;
19776;SDS011;10047;42.490;26.012;2024-01-07T22:40:29;48.40;;;17.98;;
19776;SDS011;10047;42.490;26.012;2024-01-07T22:42:57;41.38;;;14.10;;
19776;SDS011;10047;42.490;26.012;2024-01-07T22:45:22;39.42;;;17.13;;
19776;SDS011;10047;42.490;26.012;2024-01-07T22:47:49;45.80;;;17.42;;
19776;SDS011;10047;42.490;26.012;2024-01-07T22:50:28;52.75;;;18.35;;
19776;SDS011;10047;42.490;26.012;2024-01-07T22:52:56;35.88;;;13.55;;
19776;SDS011;10047;42.490;26.012;2024-01-07T22:55:21;34.00;;;11.45;;
19776;SDS011;10047;42.490;26.012;2024-01-07T23:00:22;25.63;;;10.07;;
19776;SDS011;10047;42.490;26.012;2024-01-07T23:02:50;27.67;;;10.63;;
19776;SDS011;10047;42.490;26.012;2024-01-07T23:05:16;24.92;;;8.05;;
19776;SDS011;10047;42.490;26.012;2024-01-07T23:07:43;19.23;;;7.72;;
19776;SDS011;10047;42.490;26.012;2024-01-07T23:10:11;30.08;;;9.77;;
19776;SDS011;10047;42.490;26.012;2024-01-07T23:12:41;27.92;;;8.15;;
19776;SDS011;10047;42.490;26.012;2024-01-07T23:15:07;27.00;;;7.95;;
19776;SDS011;10047;42.490;26.012;2024-01-07T23:17:32;26.90;;;7.80;;
19776;SDS011;10047;42.490;26.012;2024-01-07T23:19:58;26.52;;;7.18;;
19776;SDS011;10047;42.490;26.012;2024-01-07T23:22:23;26.58;;;7.45;;
19776;SDS011;10047;42.490;26.012;2024-01-07T23:24:50;28.17;;;7.80;;
19776;SDS011;10047;42.490;26.012;2024-01-07T23:29:52;29.73;;;6.80;;
19776;SDS011;10047;42.490;26.012;2024-01-07T23:32:17;25.23;;;7.82;;
19776;SDS011;10047;42.490;26.012;2024-01-07T23:34:43;28.90;;;7.80;;
19776;SDS011;10047;42.490;26.012;2024-01-07T23:37:09;37.28;;;7.88;;
19776;SDS011;10047;42.490;26.012;2024-01-07T23:39:34;32.83;;;7.28;;
19776;SDS011;10047;42.490;26.012;2024-01-07T23:42:00;30.40;;;7.85;;
19776;SDS011;10047;42.490;26.012;2024-01-07T23:44:26;27.38;;;7.18;;
19776;SDS011;10047;42.490;26.012;2024-01-07T23:46:51;28.40;;;7.18;;
19776;SDS011;10047;42.490;26.012;2024-01-07T23:49:19;28.50;;;7.47;;
19776;SDS011;10047;42.490;26.012;2024-01-07T23:51:44;22.65;;;7.28;;
19776;SDS011;10047;42.490;26.012;2024-01-07T23:54:10;24.95;;;7.22;;
19776;SDS011;10047;42.490;26.012;2024-01-07T23:56:35;23.95;;;6.95;;
19776;SDS011;10047;42.490;26.012;2024-01-07T23:59:01;35.05;;;7.97;;
